Time;durP1;ratioP1;P1;durP2;ratioP2;P2;SDS_P1;SDS_P2;PMS_P1;PMS_P2;Temp;Humidity;BMP_temperature;BMP_pressure;BME280_temperature;BME280_humidity;BME280_pressure;Samples;Min_cycle;Max_cycle;Signal;HPM_P1;HPM_P2
2021/03/21 00:01:29;;;;;;;12.30;9.63;;;;;;;;;;5095946;28;20244;-55
2021/03/21 00:03:56;;;;;;;15.55;9.85;;;;;;;;;;5095412;28;20220;-55
2021/03/21 00:06:29;;;;;;;11.77;9.38;;;;;;;;;;5095484;28;20213;-53
2021/03/21 00:08:56;;;;;;;13.18;10.57;;;;;;;;;;5095571;28;20204;-59
2021/03/21 00:11:23;;;;;;;15.50;10.55;;;;;;;;;;5096091;28;20228;-49
2021/03/21 00:14:02;;;;;;;17.42;11.45;;;;;;;;;;5095829;28;20189;-52
2021/03/21 00:16:29;;;;;;;13.35;9.98;;;;;;;;;;5095389;28;20202;-51
2021/03/21 00:18:59;;;;;;;12.68;10.55;;;;;;;;;;5095888;28;20197;-51
2021/03/21 00:21:34;;;;;;;51.95;35.78;;;;;;;;;;5095594;28;20202;-50
2021/03/21 00:24:01;;;;;;;17.58;12.63;;;;;;;;;;5095791;28;20197;-52
2021/03/21 00:26:28;;;;;;;16.85;11.90;;;;;;;;;;5095946;28;20262;-56
2021/03/21 00:29:06;;;;;;;19.17;12.98;;;;;;;;;;5095438;28;20190;-54
2021/03/21 00:31:32;;;;;;;19.85;15.30;;;;;;;;;;5095805;28;20202;-54
2021/03/21 00:33:59;;;;;;;17.85;13.13;;;;;;;;;;5095395;28;20186;-51
2021/03/21 00:36:59;;;;;;;24.08;16.10;;;;;;;;;;5095407;28;20189;-50
2021/03/21 00:39:26;;;;;;;21.60;15.85;;;;;;;;;;5095989;28;20256;-53
2021/03/21 00:41:53;;;;;;;22.83;15.20;;;;;;;;;;5095066;28;20231;-50
2021/03/21 00:44:24;;;;;;;21.33;15.80;;;;;;;;;;5095551;28;20190;-57
2021/03/21 00:46:51;;;;;;;20.90;16.40;;;;;;;;;;5095023;28;20263;-50
2021/03/21 00:49:17;;;;;;;20.85;15.30;;;;;;;;;;5095571;28;20226;-53
2021/03/21 00:52:03;;;;;;;22.48;14.60;;;;;;;;;;5095539;28;20186;-56
2021/03/21 00:54:30;;;;;;;28.48;16.73;;;;;;;;;;5095562;28;20255;-54
2021/03/21 00:56:57;;;;;;;20.88;14.95;;;;;;;;;;5095193;28;20255;-50
2021/03/21 00:59:37;;;;;;;24.83;18.13;;;;;;;;;;5095476;28;20445;-58
2021/03/21 01:02:05;;;;;;;23.98;18.27;;;;;;;;;;5093362;28;20293;-55
2021/03/21 01:04:31;;;;;;;24.67;17.90;;;;;;;;;;5098751;28;20205;-51
2021/03/21 01:07:08;;;;;;;24.10;17.20;;;;;;;;;;5098293;28;20241;-55
2021/03/21 01:09:35;;;;;;;24.17;17.05;;;;;;;;;;5099053;28;20296;-51
2021/03/21 01:12:02;;;;;;;25.60;18.55;;;;;;;;;;5098543;28;20201;-52
2021/03/21 01:14:34;;;;;;;27.58;18.48;;;;;;;;;;5099140;28;20214;-54
2021/03/21 01:17:02;;;;;;;24.98;16.88;;;;;;;;;;5098621;28;20220;-49
2021/03/21 01:19:29;;;;;;;26.45;18.05;;;;;;;;;;5098851;28;20217;-52
2021/03/21 01:22:06;;;;;;;29.38;20.15;;;;;;;;;;5098693;28;20259;-52
2021/03/21 01:24:33;;;;;;;27.08;18.73;;;;;;;;;;5098652;28;20194;-48
2021/03/21 01:26:59;;;;;;;26.33;18.58;;;;;;;;;;5098581;28;20206;-52
2021/03/21 01:29:36;;;;;;;24.95;19.38;;;;;;;;;;5098490;28;20220;-55
2021/03/21 01:32:08;;;;;;;26.75;18.50;;;;;;;;;;5098180;28;20217;-50
2021/03/21 01:34:35;;;;;;;27.52;18.90;;;;;;;;;;5098071;28;20244;-47
2021/03/21 01:40:10;;;;;;;25.58;17.67;;;;;;;;;;5095729;28;20295;-53
2021/03/21 01:42:37;;;;;;;29.08;19.05;;;;;;;;;;5098172;28;20206;-50
2021/03/21 01:45:26;;;;;;;24.55;17.15;;;;;;;;;;5098625;28;20198;-51
2021/03/21 01:47:56;;;;;;;26.17;18.73;;;;;;;;;;5076438;28;20222;-52
2021/03/21 01:50:28;;;;;;;35.83;18.38;;;;;;;;;;5098405;28;20186;-50
2021/03/21 01:52:56;;;;;;;25.92;18.23;;;;;;;;;;5098776;28;20198;-52
2021/03/21 01:55:45;;;;;;;26.27;19.20;;;;;;;;;;5098502;28;20213;-54
2021/03/21 01:58:12;;;;;;;35.83;24.33;;;;;;;;;;5098083;28;20213;-57
2021/03/21 02:00:39;;;;;;;31.80;22.30;;;;;;;;;;5112146;28;20420;-53
2021/03/21 02:03:26;;;;;;;23.85;18.23;;;;;;;;;;5109953;28;20190;-56
2021/03/21 02:05:57;;;;;;;26.23;18.48;;;;;;;;;;5089851;28;20217;-51
2021/03/21 02:08:35;;;;;;;29.92;18.55;;;;;;;;;;5098390;28;20307;-55
2021/03/21 02:11:06;;;;;;;22.40;15.50;;;;;;;;;;5098441;28;20197;-53
2021/03/21 02:13:38;;;;;;;22.08;16.23;;;;;;;;;;5098366;28;20198;-50
2021/03/21 02:16:07;;;;;;;19.75;13.60;;;;;;;;;;5098271;28;20267;-54
2021/03/21 02:18:39;;;;;;;19.70;14.05;;;;;;;;;;5098211;28;20186;-51
2021/03/21 02:21:20;;;;;;;20.20;13.40;;;;;;;;;;5097804;28;20193;-49
2021/03/21 02:24:00;;;;;;;20.70;14.50;;;;;;;;;;5098003;28;20236;-49
2021/03/21 02:26:45;;;;;;;20.63;14.25;;;;;;;;;;5097449;28;20240;-53
2021/03/21 02:29:14;;;;;;;21.65;16.27;;;;;;;;;;5097825;28;20190;-52
2021/03/21 02:31:44;;;;;;;23.63;16.50;;;;;;;;;;5082564;28;20206;-55
2021/03/21 02:34:34;;;;;;;32.80;24.35;;;;;;;;;;5080870;28;20198;-51
2021/03/21 02:37:05;;;;;;;64.50;44.17;;;;;;;;;;5116200;28;20201;-54
2021/03/21 02:39:37;;;;;;;22.42;15.68;;;;;;;;;;5100563;28;20216;-52
2021/03/21 02:42:06;;;;;;;21.02;13.05;;;;;;;;;;5103288;28;20186;-49
2021/03/21 02:44:37;;;;;;;18.00;12.82;;;;;;;;;;5114590;28;20258;-52
2021/03/21 02:47:07;;;;;;;22.42;14.77;;;;;;;;;;5096802;28;20348;-56
2021/03/21 02:49:36;;;;;;;17.83;12.93;;;;;;;;;;5103156;28;20205;-53
2021/03/21 02:52:06;;;;;;;18.75;13.70;;;;;;;;;;5098230;28;20225;-49
2021/03/21 02:54:35;;;;;;;20.40;14.35;;;;;;;;;;5109744;28;20247;-50
2021/03/21 02:57:31;;;;;;;21.50;15.18;;;;;;;;;;5099945;28;20193;-49
2021/03/21 03:00:01;;;;;;;20.67;15.20;;;;;;;;;;5097365;28;20205;-51
2021/03/21 03:02:31;;;;;;;22.15;14.00;;;;;;;;;;5096758;28;20210;-47
2021/03/21 03:05:12;;;;;;;19.88;14.05;;;;;;;;;;5096990;28;20220;-57
2021/03/21 03:07:43;;;;;;;23.10;16.33;;;;;;;;;;5092857;28;20214;-57
2021/03/21 03:10:13;;;;;;;23.60;15.75;;;;;;;;;;5086619;28;20193;-53
2021/03/21 03:12:46;;;;;;;22.33;14.77;;;;;;;;;;5096998;28;20190;-53
2021/03/21 03:15:15;;;;;;;18.20;13.30;;;;;;;;;;5096854;28;20189;-54
2021/03/21 03:17:44;;;;;;;20.85;15.25;;;;;;;;;;5096136;28;20194;-55
2021/03/21 03:20:16;;;;;;;17.50;14.02;;;;;;;;;;5096010;28;20217;-48
2021/03/21 03:22:47;;;;;;;24.83;17.83;;;;;;;;;;5096230;28;20232;-51
2021/03/21 03:25:19;;;;;;;20.17;14.50;;;;;;;;;;5096049;28;20205;-55
2021/03/21 03:28:08;;;;;;;18.58;14.68;;;;;;;;;;5095813;28;20240;-51
2021/03/21 03:30:39;;;;;;;16.45;12.13;;;;;;;;;;5096551;28;20232;-57
2021/03/21 03:33:09;;;;;;;40.83;25.25;;;;;;;;;;5096628;28;20232;-49
2021/03/21 03:38:40;;;;;;;18.70;13.55;;;;;;;;;;5095828;28;20249;-57
2021/03/21 03:41:25;;;;;;;23.77;15.50;;;;;;;;;;5078551;28;20193;-53
2021/03/21 03:46:45;;;;;;;18.75;13.98;;;;;;;;;;5074629;28;20225;-53
2021/03/21 03:49:19;;;;;;;20.40;13.38;;;;;;;;;;5075889;28;20187;-50
2021/03/21 03:52:05;;;;;;;18.70;13.80;;;;;;;;;;5076314;28;20194;-54
2021/03/21 03:54:33;;;;;;;25.02;17.48;;;;;;;;;;5076001;28;20207;-50
2021/03/21 03:57:07;;;;;;;19.30;13.70;;;;;;;;;;5076037;28;20225;-55
2021/03/21 03:59:47;;;;;;;28.60;20.17;;;;;;;;;;5076018;28;20208;-54
2021/03/21 04:02:18;;;;;;;22.85;15.65;;;;;;;;;;5076070;28;20197;-49
2021/03/21 04:05:04;;;;;;;25.33;14.88;;;;;;;;;;5076529;28;20197;-53
2021/03/21 04:07:37;;;;;;;24.42;15.75;;;;;;;;;;5076067;28;20245;-52
2021/03/21 04:10:06;;;;;;;24.05;15.40;;;;;;;;;;5076085;28;20190;-54
2021/03/21 04:12:34;;;;;;;32.78;22.13;;;;;;;;;;5058571;28;20189;-51
2021/03/21 04:15:06;;;;;;;23.83;17.45;;;;;;;;;;5076179;28;20305;-55
2021/03/21 04:17:38;;;;;;;34.80;22.02;;;;;;;;;;5076247;28;20191;-56
2021/03/21 04:20:43;;;;;;;23.98;16.08;;;;;;;;;;5075806;28;20213;-50
2021/03/21 04:23:13;;;;;;;22.27;13.88;;;;;;;;;;5075555;28;20202;-54
2021/03/21 04:25:43;;;;;;;23.45;15.45;;;;;;;;;;5075554;28;20174;-53
2021/03/21 04:28:32;;;;;;;23.40;17.30;;;;;;;;;;5075479;28;20256;-55
2021/03/21 04:31:00;;;;;;;25.27;18.98;;;;;;;;;;5075264;28;20248;-53
2021/03/21 04:33:32;;;;;;;59.42;38.58;;;;;;;;;;5075149;28;20206;-53
2021/03/21 04:36:29;;;;;;;21.42;14.50;;;;;;;;;;5075013;28;20241;-50
2021/03/21 04:38:58;;;;;;;20.63;14.55;;;;;;;;;;5077423;28;20341;-56
2021/03/21 04:41:27;;;;;;;21.60;14.32;;;;;;;;;;5079258;28;20200;-51
2021/03/21 04:47:01;;;;;;;18.15;12.25;;;;;;;;;;5077031;28;20325;-50
2021/03/21 04:49:28;;;;;;;19.17;13.27;;;;;;;;;;5079379;28;20511;-49
2021/03/21 04:52:18;;;;;;;21.50;13.63;;;;;;;;;;5079729;28;20214;-49
2021/03/21 04:54:47;;;;;;;18.98;12.98;;;;;;;;;;5081232;28;20270;-51
2021/03/21 04:57:24;;;;;;;19.73;13.05;;;;;;;;;;5079356;28;20202;-57
2021/03/21 04:59:57;;;;;;;18.83;13.65;;;;;;;;;;5079179;28;20190;-53
2021/03/21 05:02:27;;;;;;;18.35;12.70;;;;;;;;;;5079185;28;20202;-57
2021/03/21 05:04:58;;;;;;;19.23;12.48;;;;;;;;;;5079185;28;20198;-51
2021/03/21 05:07:34;;;;;;;21.42;14.02;;;;;;;;;;5078663;28;20222;-55
2021/03/21 05:10:05;;;;;;;19.27;12.77;;;;;;;;;;5079051;28;20198;-47
2021/03/21 05:12:36;;;;;;;22.85;13.10;;;;;;;;;;5078827;28;20213;-49
2021/03/21 05:15:17;;;;;;;21.70;14.10;;;;;;;;;;5078997;28;20209;-52
2021/03/21 05:17:54;;;;;;;20.38;13.63;;;;;;;;;;5074397;28;20207;-51
2021/03/21 05:20:26;;;;;;;19.90;12.85;;;;;;;;;;5068626;28;20186;-56
2021/03/21 05:23:12;;;;;;;23.63;14.57;;;;;;;;;;5078294;28;20258;-52
2021/03/21 05:25:42;;;;;;;24.33;14.75;;;;;;;;;;5078615;28;20277;-55
2021/03/21 05:28:13;;;;;;;23.83;13.98;;;;;;;;;;5078211;28;20227;-54
2021/03/21 05:30:40;;;;;;;22.77;15.23;;;;;;;;;;5077964;28;20194;-49
2021/03/21 05:33:08;;;;;;;21.95;13.77;;;;;;;;;;5078155;28;20198;-51
2021/03/21 05:35:37;;;;;;;22.50;15.20;;;;;;;;;;5078237;28;20236;-53
2021/03/21 05:38:12;;;;;;;24.95;14.35;;;;;;;;;;5078279;28;20422;-53
2021/03/21 05:41:07;;;;;;;23.02;14.55;;;;;;;;;;5059760;28;20202;-51
2021/03/21 05:43:57;;;;;;;23.13;14.15;;;;;;;;;;5078305;28;20195;-50
2021/03/21 05:46:43;;;;;;;20.48;13.77;;;;;;;;;;5045235;28;20263;-50
2021/03/21 05:49:34;;;;;;;25.05;14.88;;;;;;;;;;5078079;28;20199;-51
2021/03/21 05:52:20;;;;;;;31.52;14.90;;;;;;;;;;5079103;28;20206;-52
2021/03/21 06:00:56;;;;;;;26.50;16.20;;;;;;;;;;5116978;28;20236;-51
2021/03/21 06:03:46;;;;;;;21.25;14.10;;;;;;;;;;5118542;28;20503;-54
2021/03/21 06:06:41;;;;;;;23.88;14.02;;;;;;;;;;5118316;28;20189;-56
2021/03/21 06:09:30;;;;;;;25.20;15.13;;;;;;;;;;5071477;28;20201;-53
2021/03/21 06:12:00;;;;;;;25.30;14.57;;;;;;;;;;5118004;28;20205;-56
2021/03/21 06:14:44;;;;;;;23.77;14.65;;;;;;;;;;5117621;28;20189;-54
2021/03/21 06:17:44;;;;;;;25.00;14.30;;;;;;;;;;5117746;28;20227;-52
2021/03/21 06:20:20;;;;;;;26.85;15.18;;;;;;;;;;5087579;28;20218;-51
2021/03/21 06:23:06;;;;;;;25.55;15.77;;;;;;;;;;5097560;28;20224;-50
2021/03/21 06:25:46;;;;;;;25.10;14.68;;;;;;;;;;5097001;28;20202;-47
2021/03/21 06:28:48;;;;;;;30.60;17.63;;;;;;;;;;5097315;28;20256;-56
2021/03/21 06:31:38;;;;;;;30.83;16.92;;;;;;;;;;5096754;28;20284;-51
2021/03/21 06:34:12;;;;;;;26.13;14.88;;;;;;;;;;5097649;28;20198;-60
2021/03/21 06:37:02;;;;;;;30.42;17.95;;;;;;;;;;5096125;28;20201;-50
2021/03/21 06:39:41;;;;;;;25.88;16.63;;;;;;;;;;5097386;28;20237;-51
2021/03/21 06:42:30;;;;;;;33.78;18.33;;;;;;;;;;5096922;28;20189;-54
2021/03/21 06:45:12;;;;;;;33.60;18.48;;;;;;;;;;5097101;28;20232;-53
2021/03/21 06:47:52;;;;;;;33.13;18.98;;;;;;;;;;5096681;28;20257;-57
2021/03/21 06:50:27;;;;;;;31.00;19.50;;;;;;;;;;5096786;28;20208;-56
2021/03/21 06:53:03;;;;;;;31.27;17.38;;;;;;;;;;5097221;28;20201;-58
2021/03/21 06:55:33;;;;;;;32.33;19.15;;;;;;;;;;5096732;28;20194;-57
2021/03/21 06:58:30;;;;;;;34.92;20.88;;;;;;;;;;5097105;28;20281;-51
2021/03/21 07:01:00;;;;;;;33.08;19.40;;;;;;;;;;5068415;28;20204;-49
2021/03/21 07:03:46;;;;;;;32.03;20.00;;;;;;;;;;5096538;28;20190;-56
2021/03/21 07:06:34;;;;;;;29.75;18.73;;;;;;;;;;5096519;28;20260;-51
2021/03/21 07:09:22;;;;;;;35.75;19.25;;;;;;;;;;5064402;28;20206;-52
2021/03/21 07:12:05;;;;;;;32.17;18.63;;;;;;;;;;5102828;28;20280;-52
2021/03/21 07:14:59;;;;;;;33.33;19.65;;;;;;;;;;5096541;28;20198;-56
2021/03/21 07:17:42;;;;;;;32.05;19.38;;;;;;;;;;5074621;28;20254;-53
2021/03/21 07:20:24;;;;;;;33.03;18.73;;;;;;;;;;5104913;28;20233;-50
2021/03/21 07:23:26;;;;;;;27.13;17.90;;;;;;;;;;5082707;28;20203;-56
2021/03/21 07:26:14;;;;;;;29.70;16.17;;;;;;;;;;5076185;28;20201;-51
2021/03/21 07:29:08;;;;;;;21.52;14.95;;;;;;;;;;5092353;28;20384;-51
2021/03/21 07:31:47;;;;;;;26.25;15.52;;;;;;;;;;5096263;28;20205;-54
2021/03/21 07:34:40;;;;;;;26.05;16.75;;;;;;;;;;5076443;28;20190;-53
2021/03/21 07:37:10;;;;;;;29.02;15.68;;;;;;;;;;5078317;28;20206;-48
2021/03/21 07:39:43;;;;;;;22.50;13.35;;;;;;;;;;5096671;28;20216;-54
2021/03/21 07:45:29;;;;;;;23.60;14.40;;;;;;;;;;5096438;28;20239;-54
2021/03/21 07:48:23;;;;;;;21.83;14.90;;;;;;;;;;5076057;28;20345;-53
2021/03/21 07:50:55;;;;;;;18.50;13.40;;;;;;;;;;5075919;28;20190;-57
2021/03/21 07:53:27;;;;;;;18.55;13.18;;;;;;;;;;5085237;28;20194;-55
2021/03/21 07:56:15;;;;;;;21.50;13.95;;;;;;;;;;5098687;28;20211;-49
2021/03/21 07:58:46;;;;;;;21.98;13.90;;;;;;;;;;5116662;28;20211;-55
2021/03/21 08:01:14;;;;;;;19.65;12.52;;;;;;;;;;5098262;28;20249;-55
2021/03/21 08:03:56;;;;;;;22.95;13.55;;;;;;;;;;5096018;28;20186;-56
2021/03/21 08:06:27;;;;;;;21.60;13.43;;;;;;;;;;5095612;28;20205;-56
2021/03/21 08:08:58;;;;;;;18.52;11.73;;;;;;;;;;5095833;28;20223;-58
2021/03/21 08:11:53;;;;;;;18.83;11.68;;;;;;;;;;5095353;28;20193;-55
2021/03/21 08:14:26;;;;;;;20.38;12.80;;;;;;;;;;5095364;28;20244;-53
2021/03/21 08:16:55;;;;;;;16.48;10.75;;;;;;;;;;5095641;28;20190;-53
2021/03/21 08:19:24;;;;;;;19.52;11.00;;;;;;;;;;5090086;28;20221;-56
2021/03/21 08:21:52;;;;;;;17.25;10.65;;;;;;;;;;5096659;28;20193;-53
2021/03/21 08:24:32;;;;;;;13.80;9.95;;;;;;;;;;5096057;28;20229;-57
2021/03/21 08:26:59;;;;;;;12.68;9.80;;;;;;;;;;5096168;28;20233;-54
2021/03/21 08:29:27;;;;;;;16.10;9.88;;;;;;;;;;5095581;28;20213;-52
2021/03/21 08:32:24;;;;;;;15.27;8.88;;;;;;;;;;5085132;28;20182;-52
2021/03/21 08:34:52;;;;;;;16.08;9.85;;;;;;;;;;5075787;28;20191;-52
2021/03/21 08:37:27;;;;;;;17.27;8.70;;;;;;;;;;5076160;28;20197;-53
2021/03/21 08:43:11;;;;;;;9.57;5.72;;;;;;;;;;5089223;28;20280;-51
2021/03/21 08:45:40;;;;;;;13.13;8.32;;;;;;;;;;5095676;28;20265;-55
2021/03/21 08:48:44;;;;;;;14.05;7.30;;;;;;;;;;5106849;28;20237;-54
2021/03/21 08:51:29;;;;;;;12.88;7.97;;;;;;;;;;5100001;28;20225;-52
2021/03/21 08:54:04;;;;;;;13.00;8.10;;;;;;;;;;5098774;28;20194;-55
2021/03/21 08:56:35;;;;;;;15.05;8.80;;;;;;;;;;5095700;28;20205;-54
2021/03/21 08:59:13;;;;;;;13.57;8.07;;;;;;;;;;5096049;28;20265;-56
2021/03/21 09:01:57;;;;;;;15.95;9.60;;;;;;;;;;5095882;28;20190;-51
2021/03/21 09:04:26;;;;;;;15.18;9.02;;;;;;;;;;5095991;28;20198;-56
2021/03/21 09:06:55;;;;;;;11.70;8.98;;;;;;;;;;5095717;28;20194;-55
2021/03/21 09:09:38;;;;;;;15.05;9.02;;;;;;;;;;5078058;28;20208;-54
2021/03/21 09:12:21;;;;;;;14.90;9.32;;;;;;;;;;5095774;28;20193;-52
2021/03/21 09:18:03;;;;;;;14.30;7.32;;;;;;;;;;5094673;28;20209;-58
2021/03/21 09:20:31;;;;;;;13.35;6.65;;;;;;;;;;5094653;28;20202;-55
2021/03/21 09:23:01;;;;;;;10.70;6.55;;;;;;;;;;5084139;28;20388;-53
2021/03/21 09:25:48;;;;;;;14.25;7.55;;;;;;;;;;5099069;28;20208;-54
2021/03/21 09:28:15;;;;;;;11.20;6.85;;;;;;;;;;5098294;28;20244;-48
2021/03/21 09:30:43;;;;;;;7.88;6.03;;;;;;;;;;5098973;28;20175;-49
2021/03/21 09:33:43;;;;;;;8.25;5.78;;;;;;;;;;5099158;28;20194;-55
2021/03/21 09:36:13;;;;;;;9.60;6.90;;;;;;;;;;5098695;28;20202;-54
2021/03/21 09:38:45;;;;;;;9.82;6.15;;;;;;;;;;5112969;28;20201;-54
2021/03/21 09:41:35;;;;;;;10.32;5.18;;;;;;;;;;5098193;28;20209;-52
2021/03/21 09:44:06;;;;;;;8.88;4.10;;;;;;;;;;5101318;28;20229;-55
2021/03/21 09:46:42;;;;;;;11.05;4.50;;;;;;;;;;5098607;28;20194;-54
2021/03/21 09:49:19;;;;;;;7.28;3.42;;;;;;;;;;5098122;28;20190;-55
2021/03/21 09:51:51;;;;;;;9.18;3.63;;;;;;;;;;5095868;28;20229;-51
2021/03/21 09:54:24;;;;;;;8.70;4.32;;;;;;;;;;5098407;28;20209;-56
2021/03/21 09:56:54;;;;;;;8.25;4.20;;;;;;;;;;5098211;28;20198;-59
2021/03/21 09:59:26;;;;;;;6.78;5.05;;;;;;;;;;5098735;28;20189;-58
2021/03/21 10:01:57;;;;;;;10.32;5.55;;;;;;;;;;5097871;28;20202;-57
2021/03/21 10:04:28;;;;;;;10.68;6.07;;;;;;;;;;5097816;28;20205;-51
2021/03/21 10:06:58;;;;;;;9.18;6.00;;;;;;;;;;5098251;28;20213;-57
2021/03/21 10:09:28;;;;;;;10.75;5.38;;;;;;;;;;5097741;28;20206;-54
2021/03/21 10:12:03;;;;;;;10.70;4.32;;;;;;;;;;5098455;28;20205;-58
2021/03/21 10:14:50;;;;;;;11.73;4.00;;;;;;;;;;5097776;28;20204;-51
2021/03/21 10:17:35;;;;;;;9.38;3.50;;;;;;;;;;5097507;28;20192;-57
2021/03/21 10:20:04;;;;;;;16.95;3.75;;;;;;;;;;5097224;28;20216;-59
2021/03/21 10:22:50;;;;;;;7.32;2.90;;;;;;;;;;5092640;28;20254;-55
2021/03/21 10:28:42;;;;;;;10.38;4.13;;;;;;;;;;5097074;28;20239;-56
2021/03/21 10:31:31;;;;;;;10.65;4.50;;;;;;;;;;5097530;28;20190;-56
2021/03/21 10:34:27;;;;;;;13.57;4.40;;;;;;;;;;5097531;28;20205;-59
2021/03/21 10:37:01;;;;;;;20.25;5.30;;;;;;;;;;5097201;28;20205;-50
2021/03/21 10:39:46;;;;;;;13.35;4.82;;;;;;;;;;5097779;28;20206;-53
2021/03/21 10:42:14;;;;;;;15.35;4.97;;;;;;;;;;5097623;28;20197;-57
2021/03/21 10:45:06;;;;;;;17.40;6.55;;;;;;;;;;5097833;28;20190;-56
2021/03/21 10:47:52;;;;;;;11.25;5.32;;;;;;;;;;5096935;28;20226;-58
2021/03/21 10:50:43;;;;;;;17.05;5.90;;;;;;;;;;5096723;28;20170;-55
2021/03/21 10:53:30;;;;;;;14.40;4.93;;;;;;;;;;5097561;28;20200;-57
2021/03/21 10:56:26;;;;;;;12.13;4.22;;;;;;;;;;5096081;28;20174;-54
2021/03/21 10:59:00;;;;;;;14.82;4.43;;;;;;;;;;5059831;28;20207;-53
2021/03/21 11:01:52;;;;;;;14.18;4.43;;;;;;;;;;5080418;28;20201;-53
2021/03/21 11:04:41;;;;;;;12.02;4.65;;;;;;;;;;5077416;28;20202;-59
2021/03/21 11:07:14;;;;;;;10.93;4.40;;;;;;;;;;5085011;28;20225;-56
2021/03/21 11:09:51;;;;;;;16.35;4.55;;;;;;;;;;5097578;28;20190;-52
2021/03/21 11:15:30;;;;;;;14.80;4.22;;;;;;;;;;5096797;28;20180;-51
2021/03/21 11:18:01;;;;;;;16.95;4.30;;;;;;;;;;5094131;28;20224;-51
2021/03/21 11:20:34;;;;;;;17.63;4.50;;;;;;;;;;5078704;28;20233;-52
2021/03/21 11:23:08;;;;;;;10.18;4.07;;;;;;;;;;5097129;28;20192;-51
2021/03/21 11:25:37;;;;;;;12.23;3.97;;;;;;;;;;5097245;28;20202;-49
2021/03/21 11:28:27;;;;;;;11.73;4.57;;;;;;;;;;5096304;28;20245;-51
2021/03/21 11:30:57;;;;;;;16.02;5.43;;;;;;;;;;5095172;28;20214;-56
2021/03/21 11:33:29;;;;;;;19.67;5.82;;;;;;;;;;5096889;28;20182;-54
2021/03/21 11:36:15;;;;;;;15.25;5.28;;;;;;;;;;5097004;28;20198;-58
2021/03/21 11:38:46;;;;;;;16.15;5.63;;;;;;;;;;5096705;28;20205;-53
2021/03/21 11:41:26;;;;;;;16.63;6.40;;;;;;;;;;5096658;28;20194;-49
2021/03/21 11:43:53;;;;;;;18.15;4.95;;;;;;;;;;5096826;28;20190;-54
2021/03/21 11:46:30;;;;;;;21.67;5.30;;;;;;;;;;5096229;28;20202;-55
2021/03/21 11:49:15;;;;;;;18.60;4.57;;;;;;;;;;5096947;28;20205;-59
2021/03/21 11:51:43;;;;;;;17.48;5.70;;;;;;;;;;5096457;28;20206;-56
2021/03/21 11:54:15;;;;;;;15.20;5.47;;;;;;;;;;5096188;28;20643;-54
2021/03/21 11:56:46;;;;;;;17.33;4.53;;;;;;;;;;5096389;28;20178;-60
2021/03/21 11:59:15;;;;;;;23.65;6.22;;;;;;;;;;5095977;28;20208;-50
2021/03/21 12:01:44;;;;;;;25.95;5.50;;;;;;;;;;5095878;28;20198;-58
2021/03/21 12:04:35;;;;;;;21.08;5.70;;;;;;;;;;5077916;28;20201;-53
2021/03/21 12:07:03;;;;;;;26.20;5.78;;;;;;;;;;5093615;28;20245;-52
2021/03/21 12:09:32;;;;;;;25.65;5.78;;;;;;;;;;5085087;28;20226;-57
2021/03/21 12:15:04;;;;;;;23.02;5.00;;;;;;;;;;5094735;28;20225;-51
2021/03/21 12:17:32;;;;;;;18.95;5.43;;;;;;;;;;5095865;28;20186;-60
2021/03/21 12:23:03;;;;;;;28.33;5.88;;;;;;;;;;5094921;28;20219;-56
2021/03/21 12:25:32;;;;;;;26.35;5.30;;;;;;;;;;5096378;28;20205;-52
2021/03/21 12:28:36;;;;;;;20.48;5.40;;;;;;;;;;5095992;28;20217;-57
2021/03/21 12:31:05;;;;;;;16.65;5.60;;;;;;;;;;5105771;28;20217;-52
2021/03/21 12:33:33;;;;;;;24.02;7.55;;;;;;;;;;5115793;28;20197;-57
2021/03/21 12:36:20;;;;;;;25.63;9.38;;;;;;;;;;5112823;28;20193;-56
2021/03/21 12:38:52;;;;;;;27.50;7.00;;;;;;;;;;5093882;28;20218;-55
2021/03/21 12:41:31;;;;;;;29.52;9.70;;;;;;;;;;5096058;28;20213;-55
2021/03/21 12:47:03;;;;;;;25.45;8.25;;;;;;;;;;5089292;28;20227;-55
2021/03/21 12:49:33;;;;;;;19.88;7.00;;;;;;;;;;5095744;28;20193;-54
2021/03/21 12:52:08;;;;;;;25.85;7.65;;;;;;;;;;5095318;28;20194;-58
2021/03/21 12:54:35;;;;;;;23.00;7.05;;;;;;;;;;5095325;28;20190;-58
2021/03/21 12:57:28;;;;;;;21.13;8.52;;;;;;;;;;5095362;28;20226;-52
2021/03/21 12:59:56;;;;;;;25.70;7.00;;;;;;;;;;5078751;28;20193;-57
2021/03/21 13:02:25;;;;;;;29.65;9.80;;;;;;;;;;5088908;28;20209;-55
2021/03/21 13:05:18;;;;;;;40.17;10.55;;;;;;;;;;5098677;28;20194;-52
2021/03/21 13:07:46;;;;;;;26.75;11.35;;;;;;;;;;5099007;28;20222;-52
2021/03/21 13:10:12;;;;;;;15.82;7.47;;;;;;;;;;5099232;28;20190;-53
2021/03/21 13:12:40;;;;;;;28.02;8.27;;;;;;;;;;5098952;28;20630;-55
2021/03/21 13:15:10;;;;;;;17.48;7.15;;;;;;;;;;5099411;28;20175;-53
2021/03/21 13:17:37;;;;;;;26.08;7.25;;;;;;;;;;5098985;28;20190;-57
2021/03/21 13:20:05;;;;;;;15.68;6.97;;;;;;;;;;5097900;28;20208;-57
2021/03/21 13:22:32;;;;;;;39.55;13.25;;;;;;;;;;5097549;28;20224;-56
2021/03/21 13:25:04;;;;;;;28.63;8.30;;;;;;;;;;5098076;28;20186;-52
2021/03/21 13:27:34;;;;;;;23.30;8.55;;;;;;;;;;5098895;28;20228;-57
2021/03/21 13:30:01;;;;;;;31.92;9.85;;;;;;;;;;5082789;28;20218;-59
2021/03/21 13:32:28;;;;;;;19.50;8.02;;;;;;;;;;5098642;28;20217;-56
2021/03/21 13:34:55;;;;;;;25.33;8.13;;;;;;;;;;5098676;28;20250;-56
2021/03/21 13:37:37;;;;;;;31.60;8.75;;;;;;;;;;5099589;28;20202;-53
2021/03/21 13:40:04;;;;;;;21.52;8.13;;;;;;;;;;5079430;28;20198;-52
2021/03/21 13:42:31;;;;;;;22.08;8.65;;;;;;;;;;5097145;28;20190;-56
2021/03/21 13:45:00;;;;;;;20.40;7.35;;;;;;;;;;5098754;28;20190;-52
2021/03/21 13:47:27;;;;;;;20.95;7.93;;;;;;;;;;5099176;28;20206;-56
2021/03/21 13:50:16;;;;;;;25.27;8.02;;;;;;;;;;5098962;28;20209;-49
2021/03/21 13:52:44;;;;;;;25.63;7.25;;;;;;;;;;5099124;28;20186;-54
2021/03/21 13:55:12;;;;;;;27.63;6.22;;;;;;;;;;5098733;28;20216;-56
2021/03/21 13:57:53;;;;;;;24.98;6.78;;;;;;;;;;5098187;28;20202;-55
2021/03/21 14:00:20;;;;;;;41.53;6.72;;;;;;;;;;5098507;28;20185;-55
2021/03/21 14:02:47;;;;;;;26.10;6.95;;;;;;;;;;5098654;28;20291;-56
2021/03/21 14:05:37;;;;;;;27.23;5.72;;;;;;;;;;5098780;28;20201;-56
2021/03/21 14:08:05;;;;;;;15.02;5.65;;;;;;;;;;5098423;28;20210;-56
2021/03/21 14:10:32;;;;;;;22.67;5.75;;;;;;;;;;5097789;28;20209;-53
2021/03/21 14:16:02;;;;;;;21.00;4.95;;;;;;;;;;5098653;28;20215;-51
2021/03/21 14:18:29;;;;;;;15.25;5.95;;;;;;;;;;5098107;28;20194;-50
2021/03/21 14:20:56;;;;;;;14.93;4.60;;;;;;;;;;5097700;28;20206;-55
2021/03/21 14:23:36;;;;;;;22.92;6.35;;;;;;;;;;5097615;28;20200;-57
2021/03/21 14:26:17;;;;;;;23.77;6.50;;;;;;;;;;5097802;28;20178;-58
2021/03/21 14:28:45;;;;;;;27.98;5.45;;;;;;;;;;5096435;28;20233;-57
2021/03/21 14:31:12;;;;;;;25.15;6.75;;;;;;;;;;5096477;28;20193;-54
2021/03/21 14:34:00;;;;;;;20.65;4.97;;;;;;;;;;5078371;28;20198;-53
2021/03/21 14:36:27;;;;;;;18.98;5.15;;;;;;;;;;5076940;28;20203;-56
2021/03/21 14:38:55;;;;;;;22.40;7.45;;;;;;;;;;5077196;28;20203;-52
2021/03/21 14:41:22;;;;;;;20.83;6.22;;;;;;;;;;5087859;28;20198;-53
2021/03/21 14:43:49;;;;;;;21.10;5.95;;;;;;;;;;5096866;28;20197;-53
2021/03/21 14:46:16;;;;;;;19.08;5.10;;;;;;;;;;5097631;28;20213;-54
2021/03/21 14:51:46;;;;;;;20.52;5.47;;;;;;;;;;5095149;28;20240;-55
2021/03/21 14:54:18;;;;;;;19.08;5.00;;;;;;;;;;5097538;28;20202;-59
2021/03/21 14:59:51;;;;;;;25.77;5.78;;;;;;;;;;5097265;28;20180;-56
2021/03/21 15:02:18;;;;;;;27.65;6.15;;;;;;;;;;5096118;28;20257;-53
2021/03/21 15:04:57;;;;;;;23.00;5.60;;;;;;;;;;5096632;28;20197;-54
2021/03/21 15:07:24;;;;;;;14.35;6.05;;;;;;;;;;5096896;28;20282;-53
2021/03/21 15:09:52;;;;;;;26.40;5.57;;;;;;;;;;5097498;28;20198;-54
2021/03/21 15:12:32;;;;;;;16.92;4.88;;;;;;;;;;5098323;28;20238;-50
2021/03/21 15:15:00;;;;;;;20.98;5.78;;;;;;;;;;5095031;28;20217;-50
2021/03/21 15:17:33;;;;;;;22.67;5.88;;;;;;;;;;5097963;28;20182;-54
2021/03/21 15:20:00;;;;;;;29.88;6.50;;;;;;;;;;5096075;28;20202;-53
2021/03/21 15:22:28;;;;;;;22.15;5.88;;;;;;;;;;5096560;28;20228;-54
2021/03/21 15:28:01;;;;;;;28.00;8.07;;;;;;;;;;5099642;28;20232;-55
2021/03/21 15:30:29;;;;;;;27.88;7.32;;;;;;;;;;5117063;28;20505;-56
2021/03/21 15:33:23;;;;;;;31.80;7.68;;;;;;;;;;5117995;28;20212;-59
2021/03/21 15:35:50;;;;;;;15.77;6.28;;;;;;;;;;5101513;28;20293;-52
2021/03/21 15:38:18;;;;;;;29.15;5.45;;;;;;;;;;5096745;28;20193;-58
2021/03/21 15:40:46;;;;;;;24.65;6.68;;;;;;;;;;5096544;28;20186;-55
2021/03/21 15:43:15;;;;;;;20.50;5.97;;;;;;;;;;5121951;22;20213;-54
2021/03/21 15:45:42;;;;;;;36.90;5.65;;;;;;;;;;5116542;28;20215;-50
2021/03/21 15:48:09;;;;;;;21.20;4.53;;;;;;;;;;5116919;28;20217;-52
2021/03/21 15:50:37;;;;;;;30.38;5.88;;;;;;;;;;5112640;28;20204;-58
2021/03/21 15:53:27;;;;;;;20.35;4.78;;;;;;;;;;5106777;28;20186;-49
2021/03/21 15:55:54;;;;;;;21.88;5.75;;;;;;;;;;5106533;28;20220;-55
2021/03/21 15:58:22;;;;;;;15.93;5.95;;;;;;;;;;5117182;28;20208;-57
2021/03/21 16:00:52;;;;;;;16.83;4.45;;;;;;;;;;5116392;28;20185;-54
2021/03/21 16:03:19;;;;;;;29.85;5.25;;;;;;;;;;5116889;28;20225;-49
2021/03/21 16:05:46;;;;;;;22.95;5.95;;;;;;;;;;5117243;28;20185;-57